sensor_id;sensor_type;location;lat;lon;timestamp;temperature;humidity
56725;DHT22;42608;52.776;6.968;2023-03-31T00:01:24;11.50;99.90
56725;DHT22;42608;52.776;6.968;2023-03-31T00:03:49;11.50;99.90
56725;DHT22;42608;52.776;6.968;2023-03-31T00:06:15;11.50;99.90
56725;DHT22;42608;52.776;6.968;2023-03-31T00:08:44;11.50;99.90
56725;DHT22;42608;52.776;6.968;2023-03-31T00:11:09;11.50;99.90
56725;DHT22;42608;52.776;6.968;2023-03-31T00:13:36;11.50;99.90
56725;DHT22;42608;52.776;6.968;2023-03-31T00:16:03;11.50;99.90
56725;DHT22;42608;52.776;6.968;2023-03-31T00:18:29;11.50;99.90
56725;DHT22;42608;52.776;6.968;2023-03-31T00:21:04;11.50;99.90
56725;DHT22;42608;52.776;6.968;2023-03-31T00:23:31;11.50;99.90
56725;DHT22;42608;52.776;6.968;2023-03-31T00:25:56;11.40;99.90
56725;DHT22;42608;52.776;6.968;2023-03-31T00:28:22;11.50;99.90
56725;DHT22;42608;52.776;6.968;2023-03-31T00:30:48;11.50;99.90
56725;DHT22;42608;52.776;6.968;2023-03-31T00:33:13;11.40;99.90
56725;DHT22;42608;52.776;6.968;2023-03-31T00:35:39;11.40;99.90
56725;DHT22;42608;52.776;6.968;2023-03-31T00:38:05;11.40;99.90
56725;DHT22;42608;52.776;6.968;2023-03-31T00:40:34;11.30;99.90
56725;DHT22;42608;52.776;6.968;2023-03-31T00:42:59;11.30;99.90
56725;DHT22;42608;52.776;6.968;2023-03-31T00:45:29;11.30;99.90
56725;DHT22;42608;52.776;6.968;2023-03-31T00:50:22;11.20;99.90
56725;DHT22;42608;52.776;6.968;2023-03-31T00:52:52;11.20;99.90
56725;DHT22;42608;52.776;6.968;2023-03-31T00:55:21;11.20;99.90
56725;DHT22;42608;52.776;6.968;2023-03-31T00:57:48;11.10;99.90
56725;DHT22;42608;52.776;6.968;2023-03-31T01:00:17;11.10;99.90
56725;DHT22;42608;52.776;6.968;2023-03-31T01:02:45;11.10;99.90
56725;DHT22;42608;52.776;6.968;2023-03-31T01:05:33;11.00;99.90
56725;DHT22;42608;52.776;6.968;2023-03-31T01:08:01;11.00;99.90
56725;DHT22;42608;52.776;6.968;2023-03-31T01:10:29;10.90;99.90
56725;DHT22;42608;52.776;6.968;2023-03-31T01:12:57;10.90;99.90
56725;DHT22;42608;52.776;6.968;2023-03-31T01:15:23;10.90;99.90
56725;DHT22;42608;52.776;6.968;2023-03-31T01:17:48;10.90;99.90
56725;DHT22;42608;52.776;6.968;2023-03-31T01:20:33;10.90;99.90
56725;DHT22;42608;52.776;6.968;2023-03-31T01:36:25;10.70;99.90
56725;DHT22;42608;52.776;6.968;2023-03-31T01:41:41;10.60;99.90
56725;DHT22;42608;52.776;6.968;2023-03-31T01:44:23;10.70;99.90
56725;DHT22;42608;52.776;6.968;2023-03-31T01:47:09;10.60;99.90
56725;DHT22;42608;52.776;6.968;2023-03-31T01:49:50;10.60;99.90
56725;DHT22;42608;52.776;6.968;2023-03-31T01:57:46;10.60;99.90
56725;DHT22;42608;52.776;6.968;2023-03-31T02:00:14;10.60;99.90
56725;DHT22;42608;52.776;6.968;2023-03-31T02:02:43;10.60;99.90
56725;DHT22;42608;52.776;6.968;2023-03-31T02:05:21;10.60;99.90
56725;DHT22;42608;52.776;6.968;2023-03-31T02:08:02;10.50;99.90
56725;DHT22;42608;52.776;6.968;2023-03-31T02:10:30;10.50;99.90
56725;DHT22;42608;52.776;6.968;2023-03-31T02:12:57;10.50;99.90
56725;DHT22;42608;52.776;6.968;2023-03-31T02:15:25;10.50;99.90
56725;DHT22;42608;52.776;6.968;2023-03-31T02:17:52;10.50;99.90
56725;DHT22;42608;52.776;6.968;2023-03-31T02:20:19;10.50;99.90
56725;DHT22;42608;52.776;6.968;2023-03-31T02:22:47;10.50;99.90
56725;DHT22;42608;52.776;6.968;2023-03-31T02:25:14;10.50;99.90
56725;DHT22;42608;52.776;6.968;2023-03-31T02:27:42;10.40;99.90
56725;DHT22;42608;52.776;6.968;2023-03-31T02:30:09;10.40;99.90
56725;DHT22;42608;52.776;6.968;2023-03-31T02:32:38;10.40;99.90
56725;DHT22;42608;52.776;6.968;2023-03-31T02:35:05;10.40;99.90
56725;DHT22;42608;52.776;6.968;2023-03-31T02:37:31;10.40;99.90
56725;DHT22;42608;52.776;6.968;2023-03-31T02:39:58;10.40;99.90
56725;DHT22;42608;52.776;6.968;2023-03-31T02:42:24;10.50;99.90
56725;DHT22;42608;52.776;6.968;2023-03-31T02:44:50;10.40;99.90
56725;DHT22;42608;52.776;6.968;2023-03-31T02:47:16;10.40;99.90
56725;DHT22;42608;52.776;6.968;2023-03-31T02:49:52;10.40;99.90
56725;DHT22;42608;52.776;6.968;2023-03-31T02:52:29;10.40;99.90
56725;DHT22;42608;52.776;6.968;2023-03-31T02:59:59;10.50;99.90
56725;DHT22;42608;52.776;6.968;2023-03-31T03:16:08;10.50;99.90
56725;DHT22;42608;52.776;6.968;2023-03-31T03:18:35;10.50;99.90
56725;DHT22;42608;52.776;6.968;2023-03-31T03:21:00;10.50;99.90
56725;DHT22;42608;52.776;6.968;2023-03-31T03:23:26;10.50;99.90
56725;DHT22;42608;52.776;6.968;2023-03-31T03:25:51;10.50;99.90
56725;DHT22;42608;52.776;6.968;2023-03-31T03:28:17;10.50;99.90
56725;DHT22;42608;52.776;6.968;2023-03-31T03:30:43;10.50;99.90
56725;DHT22;42608;52.776;6.968;2023-03-31T03:33:08;10.60;99.90
56725;DHT22;42608;52.776;6.968;2023-03-31T03:35:34;10.60;99.90
56725;DHT22;42608;52.776;6.968;2023-03-31T03:37:59;10.60;99.90
56725;DHT22;42608;52.776;6.968;2023-03-31T03:40:25;10.60;99.90
56725;DHT22;42608;52.776;6.968;2023-03-31T03:42:51;10.60;99.90
56725;DHT22;42608;52.776;6.968;2023-03-31T03:45:16;10.60;99.90
56725;DHT22;42608;52.776;6.968;2023-03-31T03:47:42;10.60;99.90
56725;DHT22;42608;52.776;6.968;2023-03-31T03:50:08;10.60;99.90
56725;DHT22;42608;52.776;6.968;2023-03-31T03:52:34;10.60;99.90
56725;DHT22;42608;52.776;6.968;2023-03-31T03:54:59;10.50;99.90
56725;DHT22;42608;52.776;6.968;2023-03-31T03:57:26;10.50;99.90
56725;DHT22;42608;52.776;6.968;2023-03-31T03:59:51;10.50;99.90
56725;DHT22;42608;52.776;6.968;2023-03-31T04:02:17;10.50;99.90
56725;DHT22;42608;52.776;6.968;2023-03-31T04:04:43;10.60;99.90
56725;DHT22;42608;52.776;6.968;2023-03-31T04:07:08;10.50;99.90
56725;DHT22;42608;52.776;6.968;2023-03-31T04:09:34;10.50;99.90
56725;DHT22;42608;52.776;6.968;2023-03-31T04:11:59;10.50;99.90
56725;DHT22;42608;52.776;6.968;2023-03-31T04:14:25;10.50;99.90
56725;DHT22;42608;52.776;6.968;2023-03-31T04:16:50;10.50;99.90
56725;DHT22;42608;52.776;6.968;2023-03-31T04:19:16;10.50;99.90
56725;DHT22;42608;52.776;6.968;2023-03-31T04:21:42;10.50;99.90
56725;DHT22;42608;52.776;6.968;2023-03-31T04:24:09;10.50;99.90
56725;DHT22;42608;52.776;6.968;2023-03-31T04:26:36;10.50;99.90
56725;DHT22;42608;52.776;6.968;2023-03-31T04:29:09;10.50;99.90
56725;DHT22;42608;52.776;6.968;2023-03-31T04:31:34;10.40;99.90
56725;DHT22;42608;52.776;6.968;2023-03-31T04:34:03;10.40;99.90
56725;DHT22;42608;52.776;6.968;2023-03-31T04:36:33;10.40;99.90
56725;DHT22;42608;52.776;6.968;2023-03-31T04:38:59;10.40;99.90
56725;DHT22;42608;52.776;6.968;2023-03-31T04:41:25;10.40;99.90
56725;DHT22;42608;52.776;6.968;2023-03-31T04:43:54;10.40;99.90
56725;DHT22;42608;52.776;6.968;2023-03-31T04:46:19;10.40;99.90
56725;DHT22;42608;52.776;6.968;2023-03-31T04:48:45;10.40;99.90
56725;DHT22;42608;52.776;6.968;2023-03-31T04:51:11;10.40;99.90
56725;DHT22;42608;52.776;6.968;2023-03-31T04:53:39;10.40;99.90
56725;DHT22;42608;52.776;6.968;2023-03-31T04:56:05;10.40;99.90
56725;DHT22;42608;52.776;6.968;2023-03-31T04:58:31;10.40;99.90
56725;DHT22;42608;52.776;6.968;2023-03-31T05:00:57;10.40;99.90
56725;DHT22;42608;52.776;6.968;2023-03-31T05:03:23;10.30;99.90
56725;DHT22;42608;52.776;6.968;2023-03-31T05:05:48;10.40;99.90
56725;DHT22;42608;52.776;6.968;2023-03-31T05:08:14;10.40;99.90
56725;DHT22;42608;52.776;6.968;2023-03-31T05:10:39;10.40;99.90
56725;DHT22;42608;52.776;6.968;2023-03-31T05:13:05;10.30;99.90
56725;DHT22;42608;52.776;6.968;2023-03-31T05:15:30;10.40;99.90
56725;DHT22;42608;52.776;6.968;2023-03-31T05:17:56;10.40;99.90
56725;DHT22;42608;52.776;6.968;2023-03-31T05:20:22;10.40;99.90
56725;DHT22;42608;52.776;6.968;2023-03-31T05:22:48;10.30;99.90
56725;DHT22;42608;52.776;6.968;2023-03-31T05:25:13;10.40;99.90
56725;DHT22;42608;52.776;6.968;2023-03-31T05:27:43;10.40;99.90
56725;DHT22;42608;52.776;6.968;2023-03-31T05:30:09;10.30;99.90
56725;DHT22;42608;52.776;6.968;2023-03-31T05:32:34;10.30;99.90
56725;DHT22;42608;52.776;6.968;2023-03-31T05:35:00;10.30;99.90
56725;DHT22;42608;52.776;6.968;2023-03-31T05:37:26;10.30;99.90
56725;DHT22;42608;52.776;6.968;2023-03-31T05:39:52;10.30;99.90
56725;DHT22;42608;52.776;6.968;2023-03-31T05:42:17;10.30;99.90
56725;DHT22;42608;52.776;6.968;2023-03-31T05:44:43;10.30;99.90
56725;DHT22;42608;52.776;6.968;2023-03-31T05:47:09;10.30;99.90
56725;DHT22;42608;52.776;6.968;2023-03-31T05:49:34;10.30;99.90
56725;DHT22;42608;52.776;6.968;2023-03-31T05:52:00;10.30;99.90
56725;DHT22;42608;52.776;6.968;2023-03-31T05:54:26;10.30;99.90
56725;DHT22;42608;52.776;6.968;2023-03-31T05:56:52;10.30;99.90
56725;DHT22;42608;52.776;6.968;2023-03-31T05:59:17;10.30;99.90
56725;DHT22;42608;52.776;6.968;2023-03-31T06:01:43;10.30;99.90
56725;DHT22;42608;52.776;6.968;2023-03-31T06:04:08;10.30;99.90
56725;DHT22;42608;52.776;6.968;2023-03-31T06:06:34;10.30;99.90
56725;DHT22;42608;52.776;6.968;2023-03-31T06:09:03;10.30;99.90
56725;DHT22;42608;52.776;6.968;2023-03-31T06:11:28;10.30;99.90
56725;DHT22;42608;52.776;6.968;2023-03-31T06:13:54;10.30;99.90
56725;DHT22;42608;52.776;6.968;2023-03-31T06:16:20;10.30;99.90
56725;DHT22;42608;52.776;6.968;2023-03-31T06:18:45;10.20;99.90
56725;DHT22;42608;52.776;6.968;2023-03-31T06:21:12;10.20;99.90
56725;DHT22;42608;52.776;6.968;2023-03-31T06:23:38;10.20;99.90
56725;DHT22;42608;52.776;6.968;2023-03-31T06:26:04;10.20;99.90
56725;DHT22;42608;52.776;6.968;2023-03-31T06:28:31;10.20;99.90
56725;DHT22;42608;52.776;6.968;2023-03-31T06:31:00;10.20;99.90
56725;DHT22;42608;52.776;6.968;2023-03-31T06:33:26;10.20;99.90
56725;DHT22;42608;52.776;6.968;2023-03-31T06:35:54;10.20;99.90
56725;DHT22;42608;52.776;6.968;2023-03-31T06:38:20;10.20;99.90
56725;DHT22;42608;52.776;6.968;2023-03-31T06:40:45;10.20;99.90
56725;DHT22;42608;52.776;6.968;2023-03-31T06:43:11;10.20;99.90
56725;DHT22;42608;52.776;6.968;2023-03-31T06:45:36;10.20;99.90
56725;DHT22;42608;52.776;6.968;2023-03-31T06:48:02;10.20;99.90
56725;DHT22;42608;52.776;6.968;2023-03-31T06:50:28;10.20;99.90
56725;DHT22;42608;52.776;6.968;2023-03-31T06:52:53;10.20;99.90
56725;DHT22;42608;52.776;6.968;2023-03-31T06:55:19;10.30;99.90
56725;DHT22;42608;52.776;6.968;2023-03-31T06:57:45;10.20;99.90
56725;DHT22;42608;52.776;6.968;2023-03-31T07:00:10;10.30;99.90
56725;DHT22;42608;52.776;6.968;2023-03-31T07:02:36;10.30;99.90
56725;DHT22;42608;52.776;6.968;2023-03-31T07:05:02;10.30;99.90
56725;DHT22;42608;52.776;6.968;2023-03-31T07:07:30;10.30;99.90
56725;DHT22;42608;52.776;6.968;2023-03-31T07:09:55;10.30;99.90
56725;DHT22;42608;52.776;6.968;2023-03-31T07:12:21;10.30;99.90
56725;DHT22;42608;52.776;6.968;2023-03-31T07:14:46;10.30;99.90
56725;DHT22;42608;52.776;6.968;2023-03-31T07:17:12;10.30;99.90
56725;DHT22;42608;52.776;6.968;2023-03-31T07:19:37;10.40;99.90
56725;DHT22;42608;52.776;6.968;2023-03-31T07:22:06;10.40;99.90
56725;DHT22;42608;52.776;6.968;2023-03-31T07:24:32;10.40;99.90
56725;DHT22;42608;52.776;6.968;2023-03-31T07:26:58;10.40;99.90
56725;DHT22;42608;52.776;6.968;2023-03-31T07:29:23;10.40;99.90
56725;DHT22;42608;52.776;6.968;2023-03-31T07:31:49;10.40;99.90
56725;DHT22;42608;52.776;6.968;2023-03-31T07:34:15;10.40;99.90
56725;DHT22;42608;52.776;6.968;2023-03-31T07:36:40;10.50;99.90
56725;DHT22;42608;52.776;6.968;2023-03-31T07:39:06;10.40;99.90
56725;DHT22;42608;52.776;6.968;2023-03-31T07:41:31;10.50;99.90
56725;DHT22;42608;52.776;6.968;2023-03-31T07:43:57;10.50;99.90
56725;DHT22;42608;52.776;6.968;2023-03-31T07:46:24;10.50;99.90
56725;DHT22;42608;52.776;6.968;2023-03-31T07:48:50;10.50;99.90
56725;DHT22;42608;52.776;6.968;2023-03-31T07:51:18;10.60;99.90
56725;DHT22;42608;52.776;6.968;2023-03-31T07:53:44;10.50;99.90
56725;DHT22;42608;52.776;6.968;2023-03-31T07:56:09;10.60;99.90
56725;DHT22;42608;52.776;6.968;2023-03-31T07:58:35;10.60;99.90
56725;DHT22;42608;52.776;6.968;2023-03-31T08:01:00;10.60;99.90
56725;DHT22;42608;52.776;6.968;2023-03-31T08:03:26;10.60;99.90
56725;DHT22;42608;52.776;6.968;2023-03-31T08:05:52;10.60;99.90
56725;DHT22;42608;52.776;6.968;2023-03-31T08:08:17;10.60;99.90
56725;DHT22;42608;52.776;6.968;2023-03-31T08:10:43;10.60;99.90
56725;DHT22;42608;52.776;6.968;2023-03-31T08:13:09;10.70;99.90
56725;DHT22;42608;52.776;6.968;2023-03-31T08:15:34;10.70;99.90
56725;DHT22;42608;52.776;6.968;2023-03-31T08:18:00;10.60;99.90
56725;DHT22;42608;52.776;6.968;2023-03-31T08:20:25;10.70;99.90
56725;DHT22;42608;52.776;6.968;2023-03-31T08:22:51;10.70;99.90
56725;DHT22;42608;52.776;6.968;2023-03-31T08:25:17;10.70;99.90
56725;DHT22;42608;52.776;6.968;2023-03-31T08:27:42;10.70;99.90
56725;DHT22;42608;52.776;6.968;2023-03-31T08:30:09;10.70;99.90
56725;DHT22;42608;52.776;6.968;2023-03-31T08:32:35;10.70;99.90
56725;DHT22;42608;52.776;6.968;2023-03-31T08:35:01;10.70;99.90
56725;DHT22;42608;52.776;6.968;2023-03-31T08:37:26;10.70;99.90
56725;DHT22;42608;52.776;6.968;2023-03-31T08:39:53;10.70;99.90
56725;DHT22;42608;52.776;6.968;2023-03-31T08:47:23;10.70;99.90
56725;DHT22;42608;52.776;6.968;2023-03-31T08:49:51;10.70;99.90
56725;DHT22;42608;52.776;6.968;2023-03-31T08:52:19;10.80;99.90
56725;DHT22;42608;52.776;6.968;2023-03-31T08:54:48;10.80;99.90
56725;DHT22;42608;52.776;6.968;2023-03-31T08:57:21;10.80;99.90
56725;DHT22;42608;52.776;6.968;2023-03-31T08:59:48;10.80;99.90
56725;DHT22;42608;52.776;6.968;2023-03-31T09:02:17;10.90;99.90
56725;DHT22;42608;52.776;6.968;2023-03-31T09:04:47;10.90;99.90
56725;DHT22;42608;52.776;6.968;2023-03-31T09:12:20;11.00;99.90
56725;DHT22;42608;52.776;6.968;2023-03-31T09:15:00;10.90;99.90
56725;DHT22;42608;52.776;6.968;2023-03-31T09:17:28;10.90;99.90
56725;DHT22;42608;52.776;6.968;2023-03-31T09:19:55;10.90;99.90
56725;DHT22;42608;52.776;6.968;2023-03-31T09:22:24;10.90;99.90
56725;DHT22;42608;52.776;6.968;2023-03-31T09:25:02;11.00;99.90
56725;DHT22;42608;52.776;6.968;2023-03-31T09:27:30;11.00;99.90
56725;DHT22;42608;52.776;6.968;2023-03-31T09:32:29;10.90;99.90
56725;DHT22;42608;52.776;6.968;2023-03-31T09:35:11;11.00;99.90
56725;DHT22;42608;52.776;6.968;2023-03-31T09:37:38;11.00;99.90
56725;DHT22;42608;52.776;6.968;2023-03-31T09:40:04;10.90;99.90
56725;DHT22;42608;52.776;6.968;2023-03-31T09:42:34;11.00;99.90
56725;DHT22;42608;52.776;6.968;2023-03-31T09:45:00;11.00;99.90
56725;DHT22;42608;52.776;6.968;2023-03-31T09:47:41;11.00;99.90
56725;DHT22;42608;52.776;6.968;2023-03-31T09:50:08;11.00;99.90
56725;DHT22;42608;52.776;6.968;2023-03-31T09:52:42;11.00;99.90
56725;DHT22;42608;52.776;6.968;2023-03-31T09:55:20;11.00;99.90
56725;DHT22;42608;52.776;6.968;2023-03-31T09:57:46;11.00;99.90
56725;DHT22;42608;52.776;6.968;2023-03-31T10:08:12;11.10;99.90
56725;DHT22;42608;52.776;6.968;2023-03-31T10:10:42;11.10;99.90
56725;DHT22;42608;52.776;6.968;2023-03-31T10:13:08;11.10;99.90
56725;DHT22;42608;52.776;6.968;2023-03-31T10:15:38;11.20;99.90
56725;DHT22;42608;52.776;6.968;2023-03-31T10:18:04;11.10;99.90
56725;DHT22;42608;52.776;6.968;2023-03-31T10:20:36;11.10;99.90
56725;DHT22;42608;52.776;6.968;2023-03-31T10:23:03;11.10;99.90
56725;DHT22;42608;52.776;6.968;2023-03-31T10:25:29;11.10;99.90
56725;DHT22;42608;52.776;6.968;2023-03-31T10:27:57;11.10;99.90
56725;DHT22;42608;52.776;6.968;2023-03-31T10:30:23;11.10;99.90
56725;DHT22;42608;52.776;6.968;2023-03-31T10:32:50;11.10;99.90
56725;DHT22;42608;52.776;6.968;2023-03-31T10:37:48;11.20;99.90
56725;DHT22;42608;52.776;6.968;2023-03-31T10:40:19;11.20;99.90
56725;DHT22;42608;52.776;6.968;2023-03-31T10:42:46;11.30;99.90
56725;DHT22;42608;52.776;6.968;2023-03-31T10:45:58;11.30;99.90
56725;DHT22;42608;52.776;6.968;2023-03-31T10:47:58;11.40;99.90
56725;DHT22;42608;52.776;6.968;2023-03-31T10:50:31;11.40;99.90
56725;DHT22;42608;52.776;6.968;2023-03-31T10:53:03;11.40;99.90
56725;DHT22;42608;52.776;6.968;2023-03-31T10:55:31;11.40;99.90
56725;DHT22;42608;52.776;6.968;2023-03-31T10:58:01;11.40;99.90
56725;DHT22;42608;52.776;6.968;2023-03-31T11:00:44;11.40;99.90
56725;DHT22;42608;52.776;6.968;2023-03-31T11:05:48;11.50;99.90
56725;DHT22;42608;52.776;6.968;2023-03-31T11:08:25;11.40;99.90
56725;DHT22;42608;52.776;6.968;2023-03-31T11:16:04;11.60;99.90
56725;DHT22;42608;52.776;6.968;2023-03-31T11:18:51;11.60;99.90
56725;DHT22;42608;52.776;6.968;2023-03-31T11:21:25;11.60;99.90
56725;DHT22;42608;52.776;6.968;2023-03-31T11:34:46;11.80;99.90
56725;DHT22;42608;52.776;6.968;2023-03-31T11:42:19;11.80;99.90
56725;DHT22;42608;52.776;6.968;2023-03-31T11:44:49;11.90;99.90
56725;DHT22;42608;52.776;6.968;2023-03-31T11:47:23;11.90;99.90
56725;DHT22;42608;52.776;6.968;2023-03-31T11:49:53;11.90;99.90
56725;DHT22;42608;52.776;6.968;2023-03-31T11:52:21;11.90;99.90
56725;DHT22;42608;52.776;6.968;2023-03-31T11:57:16;11.90;99.90
56725;DHT22;42608;52.776;6.968;2023-03-31T11:59:44;11.90;99.90
56725;DHT22;42608;52.776;6.968;2023-03-31T12:02:15;11.90;99.90
56725;DHT22;42608;52.776;6.968;2023-03-31T12:04:43;11.90;99.90
56725;DHT22;42608;52.776;6.968;2023-03-31T12:07:29;11.90;99.90
56725;DHT22;42608;52.776;6.968;2023-03-31T12:10:04;11.90;99.90
56725;DHT22;42608;52.776;6.968;2023-03-31T12:12:44;11.90;99.90
56725;DHT22;42608;52.776;6.968;2023-03-31T12:17:44;11.90;99.90
56725;DHT22;42608;52.776;6.968;2023-03-31T12:20:17;11.90;99.90
56725;DHT22;42608;52.776;6.968;2023-03-31T12:22:46;11.90;99.90
56725;DHT22;42608;52.776;6.968;2023-03-31T12:25:13;11.90;99.90
56725;DHT22;42608;52.776;6.968;2023-03-31T12:27:40;12.00;99.90
56725;DHT22;42608;52.776;6.968;2023-03-31T12:32:32;12.10;99.90
56725;DHT22;42608;52.776;6.968;2023-03-31T12:35:00;12.10;99.90
56725;DHT22;42608;52.776;6.968;2023-03-31T12:50:27;12.60;99.90
56725;DHT22;42608;52.776;6.968;2023-03-31T13:05:59;13.00;99.90
56725;DHT22;42608;52.776;6.968;2023-03-31T13:11:10;12.90;99.90
56725;DHT22;42608;52.776;6.968;2023-03-31T13:13:39;13.00;99.90
56725;DHT22;42608;52.776;6.968;2023-03-31T13:16:05;13.00;99.90
56725;DHT22;42608;52.776;6.968;2023-03-31T13:18:31;13.10;99.90
56725;DHT22;42608;52.776;6.968;2023-03-31T13:20:58;13.00;99.90
56725;DHT22;42608;52.776;6.968;2023-03-31T13:23:24;13.10;99.90
56725;DHT22;42608;52.776;6.968;2023-03-31T13:25:50;13.10;99.90
56725;DHT22;42608;52.776;6.968;2023-03-31T13:30:58;13.00;99.90
56725;DHT22;42608;52.776;6.968;2023-03-31T13:33:27;13.00;99.90
56725;DHT22;42608;52.776;6.968;2023-03-31T13:36:03;13.00;99.90
56725;DHT22;42608;52.776;6.968;2023-03-31T13:41:42;12.90;99.90
56725;DHT22;42608;52.776;6.968;2023-03-31T13:52:01;12.90;99.90
56725;DHT22;42608;52.776;6.968;2023-03-31T14:07:46;12.80;99.90
56725;DHT22;42608;52.776;6.968;2023-03-31T14:10:20;12.70;99.90
56725;DHT22;42608;52.776;6.968;2023-03-31T14:12:46;12.70;99.90
56725;DHT22;42608;52.776;6.968;2023-03-31T14:15:16;12.70;99.90
56725;DHT22;42608;52.776;6.968;2023-03-31T14:17:42;12.70;99.90
56725;DHT22;42608;52.776;6.968;2023-03-31T14:20:23;12.70;99.90
56725;DHT22;42608;52.776;6.968;2023-03-31T14:25:25;12.50;99.90
56725;DHT22;42608;52.776;6.968;2023-03-31T14:28:02;12.40;99.90
56725;DHT22;42608;52.776;6.968;2023-03-31T14:36:15;12.20;99.90
56725;DHT22;42608;52.776;6.968;2023-03-31T14:38:45;12.10;99.90
56725;DHT22;42608;52.776;6.968;2023-03-31T14:41:17;12.00;99.90
56725;DHT22;42608;52.776;6.968;2023-03-31T14:43:54;12.00;99.90
56725;DHT22;42608;52.776;6.968;2023-03-31T14:46:20;11.90;99.90
56725;DHT22;42608;52.776;6.968;2023-03-31T14:48:47;11.90;99.90
56725;DHT22;42608;52.776;6.968;2023-03-31T14:51:13;11.90;99.90
56725;DHT22;42608;52.776;6.968;2023-03-31T14:53:39;11.90;99.90
56725;DHT22;42608;52.776;6.968;2023-03-31T14:58:35;11.90;99.90
56725;DHT22;42608;52.776;6.968;2023-03-31T15:01:02;11.90;99.90
56725;DHT22;42608;52.776;6.968;2023-03-31T15:03:28;12.00;99.90
56725;DHT22;42608;52.776;6.968;2023-03-31T15:05:56;11.90;99.90
56725;DHT22;42608;52.776;6.968;2023-03-31T15:08:22;11.90;99.90
56725;DHT22;42608;52.776;6.968;2023-03-31T15:10:49;12.00;99.90
56725;DHT22;42608;52.776;6.968;2023-03-31T15:13:16;12.00;99.90
56725;DHT22;42608;52.776;6.968;2023-03-31T15:15:43;12.00;99.90
56725;DHT22;42608;52.776;6.968;2023-03-31T15:18:11;12.00;99.90
56725;DHT22;42608;52.776;6.968;2023-03-31T15:20:39;12.10;99.90
56725;DHT22;42608;52.776;6.968;2023-03-31T15:23:21;12.10;99.90
56725;DHT22;42608;52.776;6.968;2023-03-31T15:26:07;12.10;99.90
56725;DHT22;42608;52.776;6.968;2023-03-31T15:28:39;12.10;99.90
56725;DHT22;42608;52.776;6.968;2023-03-31T15:31:07;12.20;99.90
56725;DHT22;42608;52.776;6.968;2023-03-31T15:33:33;12.20;99.90
56725;DHT22;42608;52.776;6.968;2023-03-31T15:36:01;12.20;99.90
56725;DHT22;42608;52.776;6.968;2023-03-31T15:38:27;12.30;99.90
56725;DHT22;42608;52.776;6.968;2023-03-31T15:40:54;12.30;99.90
56725;DHT22;42608;52.776;6.968;2023-03-31T15:45:56;12.30;99.90
56725;DHT22;42608;52.776;6.968;2023-03-31T15:48:24;12.40;99.90
56725;DHT22;42608;52.776;6.968;2023-03-31T15:50:58;12.40;99.90
56725;DHT22;42608;52.776;6.968;2023-03-31T15:53:31;12.30;99.90
56725;DHT22;42608;52.776;6.968;2023-03-31T15:55:59;12.40;99.90
56725;DHT22;42608;52.776;6.968;2023-03-31T16:01:10;12.40;99.90
56725;DHT22;42608;52.776;6.968;2023-03-31T16:03:39;12.40;99.90
56725;DHT22;42608;52.776;6.968;2023-03-31T16:09:08;12.40;99.90
56725;DHT22;42608;52.776;6.968;2023-03-31T16:14:09;12.40;99.90
56725;DHT22;42608;52.776;6.968;2023-03-31T16:16:37;12.40;99.90
56725;DHT22;42608;52.776;6.968;2023-03-31T16:19:04;12.30;99.90
56725;DHT22;42608;52.776;6.968;2023-03-31T16:21:35;12.10;99.90
56725;DHT22;42608;52.776;6.968;2023-03-31T16:24:02;12.00;99.90
56725;DHT22;42608;52.776;6.968;2023-03-31T16:26:28;11.90;99.90
56725;DHT22;42608;52.776;6.968;2023-03-31T16:28:54;11.80;99.90
56725;DHT22;42608;52.776;6.968;2023-03-31T16:31:32;11.80;99.90
56725;DHT22;42608;52.776;6.968;2023-03-31T16:34:02;11.70;99.90
56725;DHT22;42608;52.776;6.968;2023-03-31T16:36:28;11.70;99.90
56725;DHT22;42608;52.776;6.968;2023-03-31T16:38:53;11.70;99.90
56725;DHT22;42608;52.776;6.968;2023-03-31T16:41:20;11.70;99.90
56725;DHT22;42608;52.776;6.968;2023-03-31T16:43:47;11.70;99.90
56725;DHT22;42608;52.776;6.968;2023-03-31T16:46:16;11.60;99.90
56725;DHT22;42608;52.776;6.968;2023-03-31T16:48:42;11.60;99.90
56725;DHT22;42608;52.776;6.968;2023-03-31T16:51:07;11.60;99.90
56725;DHT22;42608;52.776;6.968;2023-03-31T16:53:34;11.60;99.90
56725;DHT22;42608;52.776;6.968;2023-03-31T16:56:00;11.60;99.90
56725;DHT22;42608;52.776;6.968;2023-03-31T16:58:27;11.50;99.90
56725;DHT22;42608;52.776;6.968;2023-03-31T17:00:56;11.50;99.90
56725;DHT22;42608;52.776;6.968;2023-03-31T17:03:22;11.60;99.90
56725;DHT22;42608;52.776;6.968;2023-03-31T17:05:48;11.60;99.90
56725;DHT22;42608;52.776;6.968;2023-03-31T17:08:17;11.60;99.90
56725;DHT22;42608;52.776;6.968;2023-03-31T17:10:49;11.60;99.90
56725;DHT22;42608;52.776;6.968;2023-03-31T17:13:15;11.60;99.90
56725;DHT22;42608;52.776;6.968;2023-03-31T17:15:41;11.50;99.90
56725;DHT22;42608;52.776;6.968;2023-03-31T17:18:06;11.60;99.90
56725;DHT22;42608;52.776;6.968;2023-03-31T17:20:32;11.60;99.90
56725;DHT22;42608;52.776;6.968;2023-03-31T17:22:58;11.60;99.90
56725;DHT22;42608;52.776;6.968;2023-03-31T17:25:24;11.50;99.90
56725;DHT22;42608;52.776;6.968;2023-03-31T17:27:50;11.50;99.90
56725;DHT22;42608;52.776;6.968;2023-03-31T17:30:15;11.50;99.90
56725;DHT22;42608;52.776;6.968;2023-03-31T17:32:41;11.50;99.90
56725;DHT22;42608;52.776;6.968;2023-03-31T17:35:07;11.50;99.90
56725;DHT22;42608;52.776;6.968;2023-03-31T17:37:32;11.50;99.90
56725;DHT22;42608;52.776;6.968;2023-03-31T17:39:58;11.50;99.90
56725;DHT22;42608;52.776;6.968;2023-03-31T17:42:24;11.50;99.90
56725;DHT22;42608;52.776;6.968;2023-03-31T17:44:50;11.40;99.90
56725;DHT22;42608;52.776;6.968;2023-03-31T17:47:18;11.40;99.90
56725;DHT22;42608;52.776;6.968;2023-03-31T17:49:44;11.40;99.90
56725;DHT22;42608;52.776;6.968;2023-03-31T17:52:10;11.40;99.90
56725;DHT22;42608;52.776;6.968;2023-03-31T17:54:36;11.40;99.90
56725;DHT22;42608;52.776;6.968;2023-03-31T17:57:01;11.40;99.90
56725;DHT22;42608;52.776;6.968;2023-03-31T17:59:27;11.30;99.90
56725;DHT22;42608;52.776;6.968;2023-03-31T18:01:53;11.30;99.90
56725;DHT22;42608;52.776;6.968;2023-03-31T18:04:19;11.30;99.90
56725;DHT22;42608;52.776;6.968;2023-03-31T18:06:45;11.30;99.90
56725;DHT22;42608;52.776;6.968;2023-03-31T18:09:13;11.30;99.90
56725;DHT22;42608;52.776;6.968;2023-03-31T18:11:39;11.30;99.90
56725;DHT22;42608;52.776;6.968;2023-03-31T18:14:05;11.20;99.90
56725;DHT22;42608;52.776;6.968;2023-03-31T18:16:32;11.20;99.90
56725;DHT22;42608;52.776;6.968;2023-03-31T18:18:58;11.20;99.90
56725;DHT22;42608;52.776;6.968;2023-03-31T18:21:23;11.20;99.90
56725;DHT22;42608;52.776;6.968;2023-03-31T18:23:49;11.20;99.90
56725;DHT22;42608;52.776;6.968;2023-03-31T18:26:20;11.20;99.90
56725;DHT22;42608;52.776;6.968;2023-03-31T18:28:46;11.10;99.90